sensor_id;sensor_type;location;lat;lon;timestamp;temperature;humidity
39493;DHT22;25176;51.060;3.720;2023-05-29T00:01:50;15.80;94.70
39493;DHT22;25176;51.060;3.720;2023-05-29T00:04:16;15.80;94.80
39493;DHT22;25176;51.060;3.720;2023-05-29T00:06:42;15.80;94.90
39493;DHT22;25176;51.060;3.720;2023-05-29T00:09:07;15.90;95.00
39493;DHT22;25176;51.060;3.720;2023-05-29T00:11:33;16.00;94.80
39493;DHT22;25176;51.060;3.720;2023-05-29T00:13:59;15.80;94.70
39493;DHT22;25176;51.060;3.720;2023-05-29T00:16:24;15.60;95.20
39493;DHT22;25176;51.060;3.720;2023-05-29T00:18:50;15.50;95.50
39493;DHT22;25176;51.060;3.720;2023-05-29T00:21:17;15.30;95.70
39493;DHT22;25176;51.060;3.720;2023-05-29T00:23:43;15.10;96.20
39493;DHT22;25176;51.060;3.720;2023-05-29T00:26:08;15.10;96.40
39493;DHT22;25176;51.060;3.720;2023-05-29T00:28:34;15.10;96.80
39493;DHT22;25176;51.060;3.720;2023-05-29T00:31:00;15.30;96.30
39493;DHT22;25176;51.060;3.720;2023-05-29T00:33:25;15.30;96.30
39493;DHT22;25176;51.060;3.720;2023-05-29T00:35:51;15.10;96.30
39493;DHT22;25176;51.060;3.720;2023-05-29T00:38:16;15.10;96.60
39493;DHT22;25176;51.060;3.720;2023-05-29T00:40:42;15.30;96.70
39493;DHT22;25176;51.060;3.720;2023-05-29T00:43:08;15.30;96.50
39493;DHT22;25176;51.060;3.720;2023-05-29T00:45:33;15.30;96.30
39493;DHT22;25176;51.060;3.720;2023-05-29T00:48:02;15.00;96.70
39493;DHT22;25176;51.060;3.720;2023-05-29T00:50:28;15.00;96.90
39493;DHT22;25176;51.060;3.720;2023-05-29T00:52:54;15.00;96.70
39493;DHT22;25176;51.060;3.720;2023-05-29T00:55:19;14.90;96.70
39493;DHT22;25176;51.060;3.720;2023-05-29T00:57:45;15.00;96.70
39493;DHT22;25176;51.060;3.720;2023-05-29T01:00:12;14.90;96.60
39493;DHT22;25176;51.060;3.720;2023-05-29T01:02:42;15.00;96.60
39493;DHT22;25176;51.060;3.720;2023-05-29T01:05:13;15.10;95.80
39493;DHT22;25176;51.060;3.720;2023-05-29T01:07:40;14.90;95.10
39493;DHT22;25176;51.060;3.720;2023-05-29T01:10:06;14.70;94.70
39493;DHT22;25176;51.060;3.720;2023-05-29T01:13:19;14.70;94.70
39493;DHT22;25176;51.060;3.720;2023-05-29T01:20:45;14.40;94.30
39493;DHT22;25176;51.060;3.720;2023-05-29T01:25:56;14.40;94.10
39493;DHT22;25176;51.060;3.720;2023-05-29T01:28:24;14.30;93.90
39493;DHT22;25176;51.060;3.720;2023-05-29T01:30:51;14.30;93.80
39493;DHT22;25176;51.060;3.720;2023-05-29T01:33:18;14.30;93.90
39493;DHT22;25176;51.060;3.720;2023-05-29T01:35:44;14.40;93.20
39493;DHT22;25176;51.060;3.720;2023-05-29T01:38:09;14.30;93.80
39493;DHT22;25176;51.060;3.720;2023-05-29T01:40:35;14.20;93.70
39493;DHT22;25176;51.060;3.720;2023-05-29T01:43:01;14.20;93.80
39493;DHT22;25176;51.060;3.720;2023-05-29T01:45:27;14.30;93.50
39493;DHT22;25176;51.060;3.720;2023-05-29T01:47:53;14.10;93.30
39493;DHT22;25176;51.060;3.720;2023-05-29T01:50:19;14.10;93.30
39493;DHT22;25176;51.060;3.720;2023-05-29T01:52:45;14.10;93.20
39493;DHT22;25176;51.060;3.720;2023-05-29T01:55:11;14.10;92.60
39493;DHT22;25176;51.060;3.720;2023-05-29T01:57:36;14.10;92.80
39493;DHT22;25176;51.060;3.720;2023-05-29T02:00:03;14.20;92.60
39493;DHT22;25176;51.060;3.720;2023-05-29T02:02:37;14.00;92.70
39493;DHT22;25176;51.060;3.720;2023-05-29T02:05:03;13.80;92.80
39493;DHT22;25176;51.060;3.720;2023-05-29T02:07:30;14.00;92.60
39493;DHT22;25176;51.060;3.720;2023-05-29T02:09:55;13.80;92.70
39493;DHT22;25176;51.060;3.720;2023-05-29T02:12:21;13.90;92.50
39493;DHT22;25176;51.060;3.720;2023-05-29T02:14:46;13.80;92.50
39493;DHT22;25176;51.060;3.720;2023-05-29T02:17:12;13.80;92.80
39493;DHT22;25176;51.060;3.720;2023-05-29T02:19:37;13.70;92.60
39493;DHT22;25176;51.060;3.720;2023-05-29T02:22:03;13.70;92.70
39493;DHT22;25176;51.060;3.720;2023-05-29T02:24:29;13.70;92.50
39493;DHT22;25176;51.060;3.720;2023-05-29T02:26:54;13.60;92.80
39493;DHT22;25176;51.060;3.720;2023-05-29T02:29:20;13.50;92.80
39493;DHT22;25176;51.060;3.720;2023-05-29T02:31:45;13.50;93.00
39493;DHT22;25176;51.060;3.720;2023-05-29T02:34:11;13.60;92.80
39493;DHT22;25176;51.060;3.720;2023-05-29T02:36:36;13.70;92.90
39493;DHT22;25176;51.060;3.720;2023-05-29T02:39:04;13.50;93.00
39493;DHT22;25176;51.060;3.720;2023-05-29T02:41:29;13.50;92.90
39493;DHT22;25176;51.060;3.720;2023-05-29T02:43:55;13.60;93.10
39493;DHT22;25176;51.060;3.720;2023-05-29T02:46:20;13.70;92.80
39493;DHT22;25176;51.060;3.720;2023-05-29T02:48:47;13.70;92.70
39493;DHT22;25176;51.060;3.720;2023-05-29T02:51:12;13.70;92.40
39493;DHT22;25176;51.060;3.720;2023-05-29T02:53:38;13.50;92.40
39493;DHT22;25176;51.060;3.720;2023-05-29T02:56:03;13.50;92.50
39493;DHT22;25176;51.060;3.720;2023-05-29T02:58:29;13.50;92.30
39493;DHT22;25176;51.060;3.720;2023-05-29T03:00:54;13.40;92.40
39493;DHT22;25176;51.060;3.720;2023-05-29T03:03:20;13.40;92.30
39493;DHT22;25176;51.060;3.720;2023-05-29T03:05:45;13.40;92.40
39493;DHT22;25176;51.060;3.720;2023-05-29T03:08:12;13.50;92.10
39493;DHT22;25176;51.060;3.720;2023-05-29T03:10:38;13.50;92.30
39493;DHT22;25176;51.060;3.720;2023-05-29T03:13:03;13.50;92.10
39493;DHT22;25176;51.060;3.720;2023-05-29T03:15:29;13.40;92.50
39493;DHT22;25176;51.060;3.720;2023-05-29T03:17:54;13.50;92.40
39493;DHT22;25176;51.060;3.720;2023-05-29T03:20:20;13.50;92.40
39493;DHT22;25176;51.060;3.720;2023-05-29T03:22:45;13.50;92.30
39493;DHT22;25176;51.060;3.720;2023-05-29T03:25:10;13.40;92.40
39493;DHT22;25176;51.060;3.720;2023-05-29T03:27:36;13.30;92.40
39493;DHT22;25176;51.060;3.720;2023-05-29T03:30:02;13.30;92.40
39493;DHT22;25176;51.060;3.720;2023-05-29T03:32:28;13.20;92.20
39493;DHT22;25176;51.060;3.720;2023-05-29T03:34:53;13.30;92.40
39493;DHT22;25176;51.060;3.720;2023-05-29T03:37:19;13.00;92.50
39493;DHT22;25176;51.060;3.720;2023-05-29T03:39:44;13.00;92.90
39493;DHT22;25176;51.060;3.720;2023-05-29T03:42:10;12.90;92.70
39493;DHT22;25176;51.060;3.720;2023-05-29T03:44:36;13.00;92.90
39493;DHT22;25176;51.060;3.720;2023-05-29T03:47:01;13.00;92.70
39493;DHT22;25176;51.060;3.720;2023-05-29T03:49:26;12.90;93.00
39493;DHT22;25176;51.060;3.720;2023-05-29T03:51:52;12.80;93.30
39493;DHT22;25176;51.060;3.720;2023-05-29T03:54:17;12.80;93.20
39493;DHT22;25176;51.060;3.720;2023-05-29T03:56:43;12.80;93.40
39493;DHT22;25176;51.060;3.720;2023-05-29T03:59:08;12.80;93.40
39493;DHT22;25176;51.060;3.720;2023-05-29T04:01:34;12.90;93.00
39493;DHT22;25176;51.060;3.720;2023-05-29T04:04:00;12.80;93.30
39493;DHT22;25176;51.060;3.720;2023-05-29T04:06:25;12.90;93.40
39493;DHT22;25176;51.060;3.720;2023-05-29T04:08:51;12.80;93.30
39493;DHT22;25176;51.060;3.720;2023-05-29T04:11:16;12.70;93.80
39493;DHT22;25176;51.060;3.720;2023-05-29T04:13:42;12.80;93.60
39493;DHT22;25176;51.060;3.720;2023-05-29T04:16:08;12.70;93.90
39493;DHT22;25176;51.060;3.720;2023-05-29T04:18:34;12.70;94.10
39493;DHT22;25176;51.060;3.720;2023-05-29T04:20:59;12.70;93.90
39493;DHT22;25176;51.060;3.720;2023-05-29T04:23:25;12.70;93.90
39493;DHT22;25176;51.060;3.720;2023-05-29T04:25:50;12.70;94.20
39493;DHT22;25176;51.060;3.720;2023-05-29T04:28:16;12.80;94.10
39493;DHT22;25176;51.060;3.720;2023-05-29T04:30:42;12.80;93.80
39493;DHT22;25176;51.060;3.720;2023-05-29T04:33:07;12.70;94.10
39493;DHT22;25176;51.060;3.720;2023-05-29T04:35:34;12.70;94.10
39493;DHT22;25176;51.060;3.720;2023-05-29T04:38:00;12.60;93.80
39493;DHT22;25176;51.060;3.720;2023-05-29T04:40:26;12.60;94.00
39493;DHT22;25176;51.060;3.720;2023-05-29T04:42:51;12.70;94.30
39493;DHT22;25176;51.060;3.720;2023-05-29T04:45:19;12.70;94.00
39493;DHT22;25176;51.060;3.720;2023-05-29T04:47:46;12.70;93.90
39493;DHT22;25176;51.060;3.720;2023-05-29T04:50:14;12.60;94.40
39493;DHT22;25176;51.060;3.720;2023-05-29T04:52:40;12.60;94.30
39493;DHT22;25176;51.060;3.720;2023-05-29T04:55:05;12.60;94.10
39493;DHT22;25176;51.060;3.720;2023-05-29T04:57:31;12.60;94.30
39493;DHT22;25176;51.060;3.720;2023-05-29T04:59:56;12.60;94.20
39493;DHT22;25176;51.060;3.720;2023-05-29T05:02:22;12.80;93.80
39493;DHT22;25176;51.060;3.720;2023-05-29T05:04:48;12.70;94.20
39493;DHT22;25176;51.060;3.720;2023-05-29T05:07:13;12.80;93.60
39493;DHT22;25176;51.060;3.720;2023-05-29T05:09:41;12.80;93.90
39493;DHT22;25176;51.060;3.720;2023-05-29T05:12:06;12.80;93.80
39493;DHT22;25176;51.060;3.720;2023-05-29T05:14:32;12.80;93.70
39493;DHT22;25176;51.060;3.720;2023-05-29T05:16:57;12.70;93.80
39493;DHT22;25176;51.060;3.720;2023-05-29T05:19:23;12.60;93.90
39493;DHT22;25176;51.060;3.720;2023-05-29T05:21:48;12.70;93.80
39493;DHT22;25176;51.060;3.720;2023-05-29T05:24:14;12.70;93.90
39493;DHT22;25176;51.060;3.720;2023-05-29T05:26:39;12.70;93.70
39493;DHT22;25176;51.060;3.720;2023-05-29T05:29:05;12.80;93.60
39493;DHT22;25176;51.060;3.720;2023-05-29T05:31:30;12.80;93.30
39493;DHT22;25176;51.060;3.720;2023-05-29T05:33:56;12.60;93.50
39493;DHT22;25176;51.060;3.720;2023-05-29T05:36:22;12.70;93.50
39493;DHT22;25176;51.060;3.720;2023-05-29T05:38:48;12.70;93.70
39493;DHT22;25176;51.060;3.720;2023-05-29T05:41:14;12.60;93.40
39493;DHT22;25176;51.060;3.720;2023-05-29T05:43:39;12.80;93.50
39493;DHT22;25176;51.060;3.720;2023-05-29T05:46:05;12.70;93.10
39493;DHT22;25176;51.060;3.720;2023-05-29T05:48:30;12.70;93.30
39493;DHT22;25176;51.060;3.720;2023-05-29T05:50:56;12.80;93.10
39493;DHT22;25176;51.060;3.720;2023-05-29T05:53:21;13.00;93.20
39493;DHT22;25176;51.060;3.720;2023-05-29T05:55:47;13.00;93.00
39493;DHT22;25176;51.060;3.720;2023-05-29T05:58:12;13.30;92.60
39493;DHT22;25176;51.060;3.720;2023-05-29T06:00:39;13.30;92.40
39493;DHT22;25176;51.060;3.720;2023-05-29T06:03:04;13.20;92.20
39493;DHT22;25176;51.060;3.720;2023-05-29T06:05:30;13.20;92.10
39493;DHT22;25176;51.060;3.720;2023-05-29T06:07:55;13.20;92.40
39493;DHT22;25176;51.060;3.720;2023-05-29T06:10:21;13.10;92.40
39493;DHT22;25176;51.060;3.720;2023-05-29T06:12:46;13.20;92.70
39493;DHT22;25176;51.060;3.720;2023-05-29T06:15:12;13.50;92.00
39493;DHT22;25176;51.060;3.720;2023-05-29T06:17:38;13.50;91.90
39493;DHT22;25176;51.060;3.720;2023-05-29T06:20:04;13.60;91.70
39493;DHT22;25176;51.060;3.720;2023-05-29T06:22:35;13.70;91.60
39493;DHT22;25176;51.060;3.720;2023-05-29T06:25:00;13.80;91.20
39493;DHT22;25176;51.060;3.720;2023-05-29T06:27:26;13.90;91.00
39493;DHT22;25176;51.060;3.720;2023-05-29T06:29:51;13.70;91.40
39493;DHT22;25176;51.060;3.720;2023-05-29T06:32:17;13.80;91.00
39493;DHT22;25176;51.060;3.720;2023-05-29T06:34:42;13.90;90.70
39493;DHT22;25176;51.060;3.720;2023-05-29T06:37:07;13.80;90.90
39493;DHT22;25176;51.060;3.720;2023-05-29T06:39:34;13.90;90.70
39493;DHT22;25176;51.060;3.720;2023-05-29T06:42:00;14.10;90.20
39493;DHT22;25176;51.060;3.720;2023-05-29T06:44:26;14.20;90.20
39493;DHT22;25176;51.060;3.720;2023-05-29T06:46:52;14.50;89.30
39493;DHT22;25176;51.060;3.720;2023-05-29T06:49:17;15.40;86.80
39493;DHT22;25176;51.060;3.720;2023-05-29T06:51:44;16.20;83.80
39493;DHT22;25176;51.060;3.720;2023-05-29T06:54:09;17.10;81.30
39493;DHT22;25176;51.060;3.720;2023-05-29T06:56:35;18.10;79.10
39493;DHT22;25176;51.060;3.720;2023-05-29T06:59:00;18.40;76.70
39493;DHT22;25176;51.060;3.720;2023-05-29T07:01:26;18.70;73.60
39493;DHT22;25176;51.060;3.720;2023-05-29T07:03:52;18.80;74.20
39493;DHT22;25176;51.060;3.720;2023-05-29T07:06:17;19.80;71.00
39493;DHT22;25176;51.060;3.720;2023-05-29T07:08:43;19.70;68.40
39493;DHT22;25176;51.060;3.720;2023-05-29T07:11:08;19.40;70.40
39493;DHT22;25176;51.060;3.720;2023-05-29T07:13:34;19.40;69.50
39493;DHT22;25176;51.060;3.720;2023-05-29T07:16:00;19.90;68.80
39493;DHT22;25176;51.060;3.720;2023-05-29T07:18:26;20.70;67.00
39493;DHT22;25176;51.060;3.720;2023-05-29T07:20:51;20.60;66.50
39493;DHT22;25176;51.060;3.720;2023-05-29T07:23:17;20.60;65.30
39493;DHT22;25176;51.060;3.720;2023-05-29T07:25:42;21.00;65.60
39493;DHT22;25176;51.060;3.720;2023-05-29T07:28:08;20.50;64.20
39493;DHT22;25176;51.060;3.720;2023-05-29T07:30:33;20.20;66.40
39493;DHT22;25176;51.060;3.720;2023-05-29T07:32:59;22.00;63.70
39493;DHT22;25176;51.060;3.720;2023-05-29T07:35:25;22.50;63.00
39493;DHT22;25176;51.060;3.720;2023-05-29T07:37:50;23.20;60.20
39493;DHT22;25176;51.060;3.720;2023-05-29T07:40:17;23.00;59.70
39493;DHT22;25176;51.060;3.720;2023-05-29T07:42:43;23.70;59.40
39493;DHT22;25176;51.060;3.720;2023-05-29T07:45:08;24.40;57.80
39493;DHT22;25176;51.060;3.720;2023-05-29T07:47:34;24.80;56.40
39493;DHT22;25176;51.060;3.720;2023-05-29T07:49:59;25.30;55.50
39493;DHT22;25176;51.060;3.720;2023-05-29T07:52:25;25.80;55.20
39493;DHT22;25176;51.060;3.720;2023-05-29T07:54:50;26.20;55.10
39493;DHT22;25176;51.060;3.720;2023-05-29T07:57:16;25.80;54.00
39493;DHT22;25176;51.060;3.720;2023-05-29T07:59:41;25.90;54.40
39493;DHT22;25176;51.060;3.720;2023-05-29T08:02:07;27.20;53.50
39493;DHT22;25176;51.060;3.720;2023-05-29T08:04:33;26.30;52.20
39493;DHT22;25176;51.060;3.720;2023-05-29T08:07:01;26.50;52.80
39493;DHT22;25176;51.060;3.720;2023-05-29T08:09:29;27.70;51.00
39493;DHT22;25176;51.060;3.720;2023-05-29T08:11:54;28.10;49.90
39493;DHT22;25176;51.060;3.720;2023-05-29T08:14:20;27.50;50.30
39493;DHT22;25176;51.060;3.720;2023-05-29T08:16:45;26.20;51.00
39493;DHT22;25176;51.060;3.720;2023-05-29T08:19:11;25.10;52.70
39493;DHT22;25176;51.060;3.720;2023-05-29T08:21:36;25.70;52.70
39493;DHT22;25176;51.060;3.720;2023-05-29T08:24:03;26.10;52.20
39493;DHT22;25176;51.060;3.720;2023-05-29T08:26:32;25.40;52.60
39493;DHT22;25176;51.060;3.720;2023-05-29T08:28:57;25.10;53.40
39493;DHT22;25176;51.060;3.720;2023-05-29T08:31:23;25.40;52.30
39493;DHT22;25176;51.060;3.720;2023-05-29T08:33:52;26.20;51.70
39493;DHT22;25176;51.060;3.720;2023-05-29T08:36:18;25.80;52.00
39493;DHT22;25176;51.060;3.720;2023-05-29T08:38:46;26.00;52.30
39493;DHT22;25176;51.060;3.720;2023-05-29T08:41:13;25.10;52.70
39493;DHT22;25176;51.060;3.720;2023-05-29T08:43:42;25.30;52.70
39493;DHT22;25176;51.060;3.720;2023-05-29T08:46:08;25.40;52.60
39493;DHT22;25176;51.060;3.720;2023-05-29T08:48:34;24.70;53.10
39493;DHT22;25176;51.060;3.720;2023-05-29T08:51:02;25.10;53.70
39493;DHT22;25176;51.060;3.720;2023-05-29T08:53:28;24.90;53.80
39493;DHT22;25176;51.060;3.720;2023-05-29T08:55:53;26.20;52.40
39493;DHT22;25176;51.060;3.720;2023-05-29T08:58:21;27.20;50.70
39493;DHT22;25176;51.060;3.720;2023-05-29T09:00:47;27.60;50.20
39493;DHT22;25176;51.060;3.720;2023-05-29T09:03:13;26.30;51.30
39493;DHT22;25176;51.060;3.720;2023-05-29T09:05:39;26.20;51.50
39493;DHT22;25176;51.060;3.720;2023-05-29T09:08:05;25.20;52.90
39493;DHT22;25176;51.060;3.720;2023-05-29T09:10:31;25.80;51.80
39493;DHT22;25176;51.060;3.720;2023-05-29T09:12:58;26.10;51.90
39493;DHT22;25176;51.060;3.720;2023-05-29T09:15:23;27.10;50.10
39493;DHT22;25176;51.060;3.720;2023-05-29T09:17:50;26.10;51.20
39493;DHT22;25176;51.060;3.720;2023-05-29T09:20:16;26.70;51.90
39493;DHT22;25176;51.060;3.720;2023-05-29T09:22:46;28.60;49.40
39493;DHT22;25176;51.060;3.720;2023-05-29T09:25:17;30.40;48.00
39493;DHT22;25176;51.060;3.720;2023-05-29T09:27:46;31.30;47.20
39493;DHT22;25176;51.060;3.720;2023-05-29T09:30:12;30.60;46.40
39493;DHT22;25176;51.060;3.720;2023-05-29T09:32:55;26.80;50.20
39493;DHT22;25176;51.060;3.720;2023-05-29T09:35:21;26.50;50.80
39493;DHT22;25176;51.060;3.720;2023-05-29T09:37:46;26.80;50.60
39493;DHT22;25176;51.060;3.720;2023-05-29T09:40:12;27.40;49.70
39493;DHT22;25176;51.060;3.720;2023-05-29T09:42:37;27.70;49.70
39493;DHT22;25176;51.060;3.720;2023-05-29T09:45:03;27.80;49.50
39493;DHT22;25176;51.060;3.720;2023-05-29T09:47:32;29.20;48.60
39493;DHT22;25176;51.060;3.720;2023-05-29T09:49:58;27.70;49.30
39493;DHT22;25176;51.060;3.720;2023-05-29T09:52:26;27.90;50.00
39493;DHT22;25176;51.060;3.720;2023-05-29T09:54:55;27.80;49.80
39493;DHT22;25176;51.060;3.720;2023-05-29T09:57:22;28.30;49.30
39493;DHT22;25176;51.060;3.720;2023-05-29T09:59:49;27.90;48.80
39493;DHT22;25176;51.060;3.720;2023-05-29T10:02:16;27.00;50.30
39493;DHT22;25176;51.060;3.720;2023-05-29T10:04:43;27.60;50.10
39493;DHT22;25176;51.060;3.720;2023-05-29T10:07:27;27.50;49.70
39493;DHT22;25176;51.060;3.720;2023-05-29T10:09:57;28.10;49.20
39493;DHT22;25176;51.060;3.720;2023-05-29T10:12:24;28.80;48.00
39493;DHT22;25176;51.060;3.720;2023-05-29T10:14:52;28.50;48.30
39493;DHT22;25176;51.060;3.720;2023-05-29T10:17:20;29.10;47.80
39493;DHT22;25176;51.060;3.720;2023-05-29T10:19:48;28.40;48.00
39493;DHT22;25176;51.060;3.720;2023-05-29T10:22:15;28.50;48.00
39493;DHT22;25176;51.060;3.720;2023-05-29T10:24:43;28.70;47.90
39493;DHT22;25176;51.060;3.720;2023-05-29T10:27:08;28.90;47.70
39493;DHT22;25176;51.060;3.720;2023-05-29T10:29:39;28.30;48.60
39493;DHT22;25176;51.060;3.720;2023-05-29T10:34:43;27.20;48.40
39493;DHT22;25176;51.060;3.720;2023-05-29T10:37:20;26.90;49.40
39493;DHT22;25176;51.060;3.720;2023-05-29T10:39:49;26.00;50.20
39493;DHT22;25176;51.060;3.720;2023-05-29T10:45:10;26.10;50.20
39493;DHT22;25176;51.060;3.720;2023-05-29T10:47:38;26.00;50.10
39493;DHT22;25176;51.060;3.720;2023-05-29T10:50:04;25.30;51.50
39493;DHT22;25176;51.060;3.720;2023-05-29T10:52:31;24.20;52.30
39493;DHT22;25176;51.060;3.720;2023-05-29T10:54:56;24.80;52.30
39493;DHT22;25176;51.060;3.720;2023-05-29T10:57:22;23.90;53.20
39493;DHT22;25176;51.060;3.720;2023-05-29T10:59:56;22.90;55.20
39493;DHT22;25176;51.060;3.720;2023-05-29T11:02:22;22.60;55.70
39493;DHT22;25176;51.060;3.720;2023-05-29T11:07:33;21.70;57.80
39493;DHT22;25176;51.060;3.720;2023-05-29T11:10:10;21.90;56.90
39493;DHT22;25176;51.060;3.720;2023-05-29T11:12:36;21.60;57.20
39493;DHT22;25176;51.060;3.720;2023-05-29T11:15:20;21.30;58.40
39493;DHT22;25176;51.060;3.720;2023-05-29T11:17:46;21.30;58.50
39493;DHT22;25176;51.060;3.720;2023-05-29T11:23:00;21.00;58.80
39493;DHT22;25176;51.060;3.720;2023-05-29T11:25:26;20.70;59.70
39493;DHT22;25176;51.060;3.720;2023-05-29T11:27:52;21.00;59.50
39493;DHT22;25176;51.060;3.720;2023-05-29T11:30:21;20.60;60.10
39493;DHT22;25176;51.060;3.720;2023-05-29T11:32:47;20.90;59.60
39493;DHT22;25176;51.060;3.720;2023-05-29T11:35:12;20.90;59.90
39493;DHT22;25176;51.060;3.720;2023-05-29T11:37:39;20.90;59.70
39493;DHT22;25176;51.060;3.720;2023-05-29T11:40:05;20.90;60.10
39493;DHT22;25176;51.060;3.720;2023-05-29T11:42:31;21.00;60.20
39493;DHT22;25176;51.060;3.720;2023-05-29T11:45:09;20.70;60.50
39493;DHT22;25176;51.060;3.720;2023-05-29T11:47:49;20.50;61.20
39493;DHT22;25176;51.060;3.720;2023-05-29T11:50:22;20.80;60.80
39493;DHT22;25176;51.060;3.720;2023-05-29T11:52:48;20.90;60.40
39493;DHT22;25176;51.060;3.720;2023-05-29T11:55:13;21.00;60.00
39493;DHT22;25176;51.060;3.720;2023-05-29T11:57:39;21.00;60.30
39493;DHT22;25176;51.060;3.720;2023-05-29T12:00:04;21.00;60.00
39493;DHT22;25176;51.060;3.720;2023-05-29T12:02:33;20.90;60.30
39493;DHT22;25176;51.060;3.720;2023-05-29T12:05:05;20.90;60.00
39493;DHT22;25176;51.060;3.720;2023-05-29T12:07:32;20.40;60.80
39493;DHT22;25176;51.060;3.720;2023-05-29T12:10:14;20.60;60.70
39493;DHT22;25176;51.060;3.720;2023-05-29T12:12:40;20.60;60.50
39493;DHT22;25176;51.060;3.720;2023-05-29T12:15:06;20.80;60.30
39493;DHT22;25176;51.060;3.720;2023-05-29T12:17:34;20.30;60.80
39493;DHT22;25176;51.060;3.720;2023-05-29T12:20:00;20.50;60.80
39493;DHT22;25176;51.060;3.720;2023-05-29T12:22:32;20.30;60.80
39493;DHT22;25176;51.060;3.720;2023-05-29T12:25:09;20.30;61.20
39493;DHT22;25176;51.060;3.720;2023-05-29T12:27:35;20.40;61.70
39493;DHT22;25176;51.060;3.720;2023-05-29T12:30:10;20.20;61.60
39493;DHT22;25176;51.060;3.720;2023-05-29T12:32:40;20.10;61.90
39493;DHT22;25176;51.060;3.720;2023-05-29T12:37:47;20.00;63.00
39493;DHT22;25176;51.060;3.720;2023-05-29T12:40:16;20.00;62.90
39493;DHT22;25176;51.060;3.720;2023-05-29T12:42:42;20.30;62.10
39493;DHT22;25176;51.060;3.720;2023-05-29T12:45:08;20.40;62.20
39493;DHT22;25176;51.060;3.720;2023-05-29T12:47:34;20.50;61.30
39493;DHT22;25176;51.060;3.720;2023-05-29T12:50:04;20.80;60.80
39493;DHT22;25176;51.060;3.720;2023-05-29T12:52:29;20.40;61.00
39493;DHT22;25176;51.060;3.720;2023-05-29T12:54:55;20.40;61.00
39493;DHT22;25176;51.060;3.720;2023-05-29T12:57:20;20.50;60.90
39493;DHT22;25176;51.060;3.720;2023-05-29T12:59:46;20.50;61.20
39493;DHT22;25176;51.060;3.720;2023-05-29T13:02:11;20.30;61.10
39493;DHT22;25176;51.060;3.720;2023-05-29T13:04:37;19.90;61.10
39493;DHT22;25176;51.060;3.720;2023-05-29T13:07:02;20.20;61.20
39493;DHT22;25176;51.060;3.720;2023-05-29T13:09:28;20.30;60.60
39493;DHT22;25176;51.060;3.720;2023-05-29T13:11:53;20.50;59.80
39493;DHT22;25176;51.060;3.720;2023-05-29T13:14:19;20.60;59.70
39493;DHT22;25176;51.060;3.720;2023-05-29T13:16:44;20.60;59.20
39493;DHT22;25176;51.060;3.720;2023-05-29T13:19:10;20.60;59.00
39493;DHT22;25176;51.060;3.720;2023-05-29T13:21:35;20.70;59.80
39493;DHT22;25176;51.060;3.720;2023-05-29T13:24:02;21.00;58.80
39493;DHT22;25176;51.060;3.720;2023-05-29T13:26:27;21.00;58.70
39493;DHT22;25176;51.060;3.720;2023-05-29T13:28:53;21.10;58.20
39493;DHT22;25176;51.060;3.720;2023-05-29T13:31:18;20.90;58.20
39493;DHT22;25176;51.060;3.720;2023-05-29T13:33:46;20.60;59.10
39493;DHT22;25176;51.060;3.720;2023-05-29T13:36:12;20.70;58.90
39493;DHT22;25176;51.060;3.720;2023-05-29T13:38:37;20.80;57.80
39493;DHT22;25176;51.060;3.720;2023-05-29T13:41:03;20.80;58.40
39493;DHT22;25176;51.060;3.720;2023-05-29T13:43:31;20.80;57.40
39493;DHT22;25176;51.060;3.720;2023-05-29T13:45:59;20.40;57.80
39493;DHT22;25176;51.060;3.720;2023-05-29T13:48:24;20.70;57.30
39493;DHT22;25176;51.060;3.720;2023-05-29T13:50:50;20.80;56.40
39493;DHT22;25176;51.060;3.720;2023-05-29T13:53:15;20.90;56.10
39493;DHT22;25176;51.060;3.720;2023-05-29T13:55:41;20.90;56.00
39493;DHT22;25176;51.060;3.720;2023-05-29T13:58:07;21.20;56.00
39493;DHT22;25176;51.060;3.720;2023-05-29T14:00:32;21.20;55.60
39493;DHT22;25176;51.060;3.720;2023-05-29T14:02:58;21.00;55.70
39493;DHT22;25176;51.060;3.720;2023-05-29T14:05:23;20.70;54.70
39493;DHT22;25176;51.060;3.720;2023-05-29T14:07:49;20.50;55.60
39493;DHT22;25176;51.060;3.720;2023-05-29T14:10:14;20.70;55.90
39493;DHT22;25176;51.060;3.720;2023-05-29T14:12:40;20.80;55.80
39493;DHT22;25176;51.060;3.720;2023-05-29T14:15:06;21.10;55.10
39493;DHT22;25176;51.060;3.720;2023-05-29T14:17:32;21.10;55.70
39493;DHT22;25176;51.060;3.720;2023-05-29T14:19:57;21.30;56.00
39493;DHT22;25176;51.060;3.720;2023-05-29T14:22:23;21.20;56.20
39493;DHT22;25176;51.060;3.720;2023-05-29T14:24:48;21.20;56.30
39493;DHT22;25176;51.060;3.720;2023-05-29T14:27:14;21.40;56.40
39493;DHT22;25176;51.060;3.720;2023-05-29T14:29:40;21.20;56.60
39493;DHT22;25176;51.060;3.720;2023-05-29T14:32:05;21.00;56.90
39493;DHT22;25176;51.060;3.720;2023-05-29T14:34:31;20.90;57.50
39493;DHT22;25176;51.060;3.720;2023-05-29T14:36:56;20.80;57.60
39493;DHT22;25176;51.060;3.720;2023-05-29T14:39:22;20.70;58.30
39493;DHT22;25176;51.060;3.720;2023-05-29T14:41:47;20.80;58.10
39493;DHT22;25176;51.060;3.720;2023-05-29T14:44:13;21.10;57.80
39493;DHT22;25176;51.060;3.720;2023-05-29T14:46:39;20.90;58.00
39493;DHT22;25176;51.060;3.720;2023-05-29T14:49:04;20.40;58.90
39493;DHT22;25176;51.060;3.720;2023-05-29T14:51:30;20.50;59.10
39493;DHT22;25176;51.060;3.720;2023-05-29T14:53:56;20.70;58.90
39493;DHT22;25176;51.060;3.720;2023-05-29T14:56:21;20.70;59.00
39493;DHT22;25176;51.060;3.720;2023-05-29T14:58:47;20.80;58.80
39493;DHT22;25176;51.060;3.720;2023-05-29T15:01:16;21.00;58.70
39493;DHT22;25176;51.060;3.720;2023-05-29T15:03:41;20.90;58.40
39493;DHT22;25176;51.060;3.720;2023-05-29T15:06:08;21.10;58.40
39493;DHT22;25176;51.060;3.720;2023-05-29T15:08:34;20.90;58.30
39493;DHT22;25176;51.060;3.720;2023-05-29T15:11:00;20.60;58.90
39493;DHT22;25176;51.060;3.720;2023-05-29T15:13:26;20.00;60.10
39493;DHT22;25176;51.060;3.720;2023-05-29T15:15:52;20.30;59.70
39493;DHT22;25176;51.060;3.720;2023-05-29T15:18:17;20.50;59.40
39493;DHT22;25176;51.060;3.720;2023-05-29T15:20:42;20.70;58.60
39493;DHT22;25176;51.060;3.720;2023-05-29T15:23:08;20.70;59.10
39493;DHT22;25176;51.060;3.720;2023-05-29T15:25:33;20.70;59.10
39493;DHT22;25176;51.060;3.720;2023-05-29T15:27:59;20.70;59.20
39493;DHT22;25176;51.060;3.720;2023-05-29T15:30:24;20.70;59.70
39493;DHT22;25176;51.060;3.720;2023-05-29T15:32:50;20.40;60.40
39493;DHT22;25176;51.060;3.720;2023-05-29T15:35:15;20.40;60.50
39493;DHT22;25176;51.060;3.720;2023-05-29T15:37:42;20.30;60.80
39493;DHT22;25176;51.060;3.720;2023-05-29T15:40:08;20.20;61.00
39493;DHT22;25176;51.060;3.720;2023-05-29T15:42:36;19.90;60.50
39493;DHT22;25176;51.060;3.720;2023-05-29T15:45:03;19.80;61.60
39493;DHT22;25176;51.060;3.720;2023-05-29T15:47:29;19.70;61.80